Fédération internationale de Ski
Member Section
Print

OFFICIAL RESULTS

Levi (FIN) 05.04.2018

National Championships - Men's National Championships OFFICIAL RESULTS

Race codex : 1460
Valid for FIS Points : YES
Jury
TD FIS DORSS DINARS LAT
Referee Krister KJØLMOEN NOR
Chief of Race Jaana KARHILA FIN
Technical Data
Start Altitude 501 m.
Finish Altitude 244 m.
Vertical Drop 257 m.
Homologation Number 9306/11/09
Run 1
Course Setter Eetu VIRRANNIEMI FIN
Number of Gates 42
Turning Gates 39
Start Time 11:40
Run 2
Course Setter Pasi LAITAKARI FIN
Number of Gates 41
Turning Gates 39
Start Time 14:15
 
Show more info»

Competitors

Rank Bib FIS Code Name Year Nation Run 1 Run 2 Total Time Diff. FIS Points
 1  110  180732 NIEMELA Arttu  1994  FIN   1:00.05  1:00.73  2:00.78     12.89
 2  116  180864 TORVINEN Turo  2000  FIN   1:00.23  1:00.72  2:00.95  +0.17  14.27
 2  107  422546 LINDSTOEL Joachim Jagge  1997  NOR   1:00.41  1:00.54  2:00.95  +0.17  14.27
 4  102  502000 ASK Jesper  1994  SWE   1:00.05  1:01.12  2:01.17  +0.39  16.05
 5  113  180817 SJOBERG Marlon  1997  FIN   1:00.66  1:00.52  2:01.18  +0.40  16.14
 6  108  550054 ZVEJNIEKS Kristaps  1992  LAT   1:00.71  1:00.49  2:01.20  +0.42  16.30
 7  105  180666 TORSTI Samu  1991  FIN   1:00.30  1:01.03  2:01.33  +0.55  17.35
 8  101  180705 PIRINEN Eemeli  1993  FIN   1:00.22  1:01.15  2:01.37  +0.59  17.68
 9  115  180791 MUSTALAHTI Jaakko  1996  FIN   1:00.54  1:01.00  2:01.54  +0.76  19.06
 10  109  502135 GRYM Hannes  1996  SWE   1:00.52  1:01.07  2:01.59  +0.81  19.46
 11  104  422300 EIDE Peder Dahlum  1994  NOR   1:01.06  1:00.67  2:01.73  +0.95  20.60
 12  121  180808 HANDOLIN Juho  1997  FIN   1:01.10  1:00.65  2:01.75  +0.97  20.76
 13  119  180877 LEHTO Elian  2000  FIN   1:00.95  1:01.23  2:02.18  +1.40  24.25
 14  120  180831 KANKKUNEN Sampo  1998  FIN   1:01.42  1:00.84  2:02.26  +1.48  24.90
 15  111  180839 PIIRAINEN Joona  1998  FIN   1:01.05  1:01.26  2:02.31  +1.53  25.30
 16  118  180849 JARVIKARE Niklas  1999  FIN   1:01.90  1:00.76  2:02.66  +1.88  28.14
 17  112  180780 TAKKI Teddy  1996  FIN   1:00.97  1:01.88  2:02.85  +2.07  29.69
 18  117  180718 HENTTINEN Jens  1993  FIN   1:01.89  1:01.40  2:03.29  +2.51  33.26
 19  125  180827 PARTANEN Jose  1998  FIN   1:01.71  1:01.80  2:03.51  +2.73  35.04
 20  124  550086 GEDRA Zaks  1998  LAT   1:01.57  1:01.95  2:03.52  +2.74  35.12
 21  130  180890 SIRVIO Salomo  2001  FIN   1:01.92  1:01.63  2:03.55  +2.77  35.37
 22  103  481463 PYASIK Evgenij  1993  RUS   1:02.02  1:01.57  2:03.59  +2.81  35.69
 23  122  502048 GRAPE LARSSON David  1995  SWE   1:01.91  1:01.84  2:03.75  +2.97  36.99
 24  129  390041 LUIK Juhan  1997  EST   1:01.83  1:02.44  2:04.27  +3.49  41.21
 25  131  180854 KERANEN Emil  1999  FIN   1:02.28  1:02.26  2:04.54  +3.76  43.40
 26  123  180820 MANKINEN Miikka  1997  FIN   1:02.17  1:02.43  2:04.60  +3.82  43.89
 27  132  180893 PIETIKAINEN Teemu  2001  FIN   1:01.51  1:03.29  2:04.80  +4.02  45.51
 28  145  180869 LIUKKONEN Sami  2000  FIN   1:02.21  1:02.60  2:04.81  +4.03  45.59
 29  169  180760 SATTANEN Juho  1995  FIN   1:02.41  1:02.41  2:04.82  +4.04  45.67
 30  126  180792 SALMENKIVI Otto  1996  FIN   1:02.57  1:02.46  2:05.03  +4.25  47.37
 31  143  180894 NIEMINEN Miikka  2001  FIN   1:02.82  1:03.07  2:05.89  +5.11  54.35
 32  139  422741 NORUM Simon  2000  NOR   1:02.84  1:03.32  2:06.16  +5.38  56.54
 33  137  502433 HANSSON William  2001  SWE   1:02.91  1:03.34  2:06.25  +5.47  57.27
 34  134  180812 AHO Saku  1997  FIN   1:02.91  1:03.47  2:06.38  +5.60  58.33
 35  146  180838 RAATIKAINEN Valtteri  1998  FIN   1:03.11  1:03.30  2:06.41  +5.63  58.57
 36  127  502141 SILFAELT Johan  1996  SWE   1:02.63  1:03.82  2:06.45  +5.67  58.90
 37  142  502452 OREDSSON Erik  2001  SWE   1:02.85  1:03.63  2:06.48  +5.70  59.14
 38  163  180861 LINJAKUMPU Juho  1999  FIN   1:02.65  1:03.91  2:06.56  +5.78  59.79
 39  133  180765 WIKSTROM William  1995  FIN   1:03.15  1:03.48  2:06.63  +5.85  60.36
 40  140  180857 LAUHAMO Leevi  1999  FIN   1:03.46  1:03.23  2:06.69  +5.91  60.84
 41  161  180876 MANSNER Jesper  2000  FIN   1:02.91  1:03.94  2:06.85  +6.07  62.14
 42  135  180810 PALANDER Saku  1997  FIN   1:03.11  1:03.89  2:07.00  +6.22  63.36
 43  159  502389 KARBACH Maximillian  2000  SWE   1:03.11  1:03.93  2:07.04  +6.26  63.68
 44  148  180851 HILTUNEN Lauri  1999  FIN   1:03.18  1:03.87  2:07.05  +6.27  63.76
 45  128  502295 BERGMAN Johan  1998  SWE   1:03.36  1:03.72  2:07.08  +6.30  64.01
 46  155  180874 LINDBERG Jon Mikkel  2000  FIN   1:03.95  1:03.41  2:07.36  +6.58  66.28
 47  138  180867 KUKKONEN Niko  2000  FIN   1:03.41  1:04.01  2:07.42  +6.64  66.77
 48  136  180832 KUIKKANIEMI Tuukka  1998  FIN   1:03.19  1:04.30  2:07.49  +6.71  67.33
 49  164  180878 FURUHJELM Edvard  2000  FIN   1:03.55  1:04.02  2:07.57  +6.79  67.98
 50  150  502463 TEGSTROEM Pontus  2001  SWE   1:03.14  1:04.72  2:07.86  +7.08  70.34
 51  157  180875 WIKSTROM Wilhelm  2000  FIN   1:03.49  1:04.40  2:07.89  +7.11  70.58
 52  154  502443 LUNDBAECK Edwin  2001  SWE   1:03.65  1:04.31  2:07.96  +7.18  71.15
 53  141  180889 POHJOLAINEN Jesper  2001  FIN   1:04.22  1:03.75  2:07.97  +7.19  71.23
 54  156  180868 MAKLIN Eemeli  2000  FIN   1:03.67  1:04.34  2:08.01  +7.23  71.55
 55  152  180887 PALOSAARI Joel  2001  FIN   1:04.13  1:04.49  2:08.62  +7.84  76.50
 56  151  180892 TUOMELA Lasse  2001  FIN   1:04.21  1:04.86  2:09.07  +8.29  80.15
 57  166  550087 ZVEJNIEKS Davis  1998  LAT   1:04.59  1:04.91  2:09.50  +8.72  83.64
 58  165  180865 AATAMILA Lauri  2000  FIN   1:04.33  1:05.62  2:09.95  +9.17  87.29
 59  168  180896 SOIKKANEN Sebastian  2001  FIN   1:04.66  1:05.46  2:10.12  +9.34  88.67
 60  167  482057 KUZNETCOV Artem  2000  RUS   1:04.92  1:05.78  2:10.70  +9.92  93.38
 61  162  502300 SAEWERSTROEM Simon  1998  SWE   1:05.01  1:05.74  2:10.75  +9.97  93.79
 62  160  180860 ALANISKA Ville  1999  FIN   1:05.04  1:08.46  2:13.50  +12.72  116.10
Did not finish 2nd run
   158  180870 SULKAKOSKI Oskari  2000  FIN           
   114  180786 BACK Robin  1996  FIN           
Did not finish 1st run
   153  180850 PARTANEN Teemu  1999  FIN           
   149  180871 JOKIAHO Oskari  2000  FIN           
   147  180888 VESALAINEN Julius  2001  FIN           
   144  180886 HAHTELA Henri  2001  FIN           
   106  501903 CASSMAN Anthon  1993  SWE